sensor_id;sensor_type;location;lat;lon;timestamp;P1;durP1;ratioP1;P2;durP2;ratioP2
72275;SDS011;61204;49.980;8.358;2022-11-15T00:00:54;17.98;;;12.70;;
72275;SDS011;61204;49.980;8.358;2022-11-15T00:03:22;21.75;;;14.77;;
72275;SDS011;61204;49.980;8.358;2022-11-15T00:05:51;20.92;;;12.95;;
72275;SDS011;61204;49.980;8.358;2022-11-15T00:08:17;21.75;;;14.35;;
72275;SDS011;61204;49.980;8.358;2022-11-15T00:10:53;20.33;;;13.60;;
72275;SDS011;61204;49.980;8.358;2022-11-15T00:13:24;20.77;;;13.88;;
72275;SDS011;61204;49.980;8.358;2022-11-15T00:15:51;19.35;;;14.45;;
72275;SDS011;61204;49.980;8.358;2022-11-15T00:18:17;20.55;;;14.90;;
72275;SDS011;61204;49.980;8.358;2022-11-15T00:20:43;19.27;;;13.80;;
72275;SDS011;61204;49.980;8.358;2022-11-15T00:23:09;19.38;;;13.80;;
72275;SDS011;61204;49.980;8.358;2022-11-15T00:25:36;18.83;;;14.40;;
72275;SDS011;61204;49.980;8.358;2022-11-15T00:28:01;18.83;;;14.00;;
72275;SDS011;61204;49.980;8.358;2022-11-15T00:30:28;21.40;;;15.82;;
72275;SDS011;61204;49.980;8.358;2022-11-15T00:32:54;37.22;;;15.70;;
72275;SDS011;61204;49.980;8.358;2022-11-15T00:35:20;19.05;;;14.65;;
72275;SDS011;61204;49.980;8.358;2022-11-15T00:37:46;20.40;;;14.70;;
72275;SDS011;61204;49.980;8.358;2022-11-15T00:40:12;19.20;;;13.77;;
72275;SDS011;61204;49.980;8.358;2022-11-15T00:42:40;19.10;;;13.63;;
72275;SDS011;61204;49.980;8.358;2022-11-15T00:45:06;15.77;;;12.77;;
72275;SDS011;61204;49.980;8.358;2022-11-15T00:47:33;21.48;;;14.40;;
72275;SDS011;61204;49.980;8.358;2022-11-15T00:49:59;18.17;;;13.55;;
72275;SDS011;61204;49.980;8.358;2022-11-15T00:52:24;22.98;;;15.45;;
72275;SDS011;61204;49.980;8.358;2022-11-15T00:54:50;20.10;;;14.73;;
72275;SDS011;61204;49.980;8.358;2022-11-15T00:57:16;21.15;;;14.70;;
72275;SDS011;61204;49.980;8.358;2022-11-15T00:59:41;19.30;;;14.35;;
72275;SDS011;61204;49.980;8.358;2022-11-15T01:02:07;20.30;;;14.23;;
72275;SDS011;61204;49.980;8.358;2022-11-15T01:04:32;17.83;;;13.13;;
72275;SDS011;61204;49.980;8.358;2022-11-15T01:06:58;17.67;;;13.65;;
72275;SDS011;61204;49.980;8.358;2022-11-15T01:09:23;17.42;;;12.20;;
72275;SDS011;61204;49.980;8.358;2022-11-15T01:11:49;19.52;;;13.70;;
72275;SDS011;61204;49.980;8.358;2022-11-15T01:14:15;20.67;;;13.27;;
72275;SDS011;61204;49.980;8.358;2022-11-15T01:16:40;19.90;;;14.57;;
72275;SDS011;61204;49.980;8.358;2022-11-15T01:19:06;17.45;;;13.80;;
72275;SDS011;61204;49.980;8.358;2022-11-15T01:21:31;18.90;;;12.77;;
72275;SDS011;61204;49.980;8.358;2022-11-15T01:23:57;15.73;;;12.90;;
72275;SDS011;61204;49.980;8.358;2022-11-15T01:26:23;17.42;;;13.75;;
72275;SDS011;61204;49.980;8.358;2022-11-15T01:28:50;18.95;;;13.13;;
72275;SDS011;61204;49.980;8.358;2022-11-15T01:31:17;18.80;;;13.70;;
72275;SDS011;61204;49.980;8.358;2022-11-15T01:33:46;18.38;;;12.63;;
72275;SDS011;61204;49.980;8.358;2022-11-15T01:36:14;17.85;;;13.02;;
72275;SDS011;61204;49.980;8.358;2022-11-15T01:38:46;16.60;;;12.13;;
72275;SDS011;61204;49.980;8.358;2022-11-15T01:41:18;17.60;;;12.90;;
72275;SDS011;61204;49.980;8.358;2022-11-15T01:43:51;18.10;;;12.88;;
72275;SDS011;61204;49.980;8.358;2022-11-15T01:46:30;17.38;;;12.23;;
72275;SDS011;61204;49.980;8.358;2022-11-15T01:49:12;14.32;;;11.73;;
72275;SDS011;61204;49.980;8.358;2022-11-15T01:51:45;19.50;;;13.15;;
72275;SDS011;61204;49.980;8.358;2022-11-15T01:54:13;18.45;;;12.88;;
72275;SDS011;61204;49.980;8.358;2022-11-15T01:56:46;16.85;;;12.45;;
72275;SDS011;61204;49.980;8.358;2022-11-15T01:59:28;18.23;;;12.23;;
72275;SDS011;61204;49.980;8.358;2022-11-15T02:01:55;16.23;;;11.98;;
72275;SDS011;61204;49.980;8.358;2022-11-15T02:07:08;15.43;;;11.07;;
72275;SDS011;61204;49.980;8.358;2022-11-15T02:09:39;17.00;;;11.52;;
72275;SDS011;61204;49.980;8.358;2022-11-15T02:12:05;17.73;;;12.27;;
72275;SDS011;61204;49.980;8.358;2022-11-15T02:14:35;16.05;;;11.57;;
72275;SDS011;61204;49.980;8.358;2022-11-15T02:26:24;18.13;;;11.15;;
72275;SDS011;61204;49.980;8.358;2022-11-15T02:29:13;15.07;;;10.35;;
72275;SDS011;61204;49.980;8.358;2022-11-15T02:32:07;18.05;;;11.10;;
72275;SDS011;61204;49.980;8.358;2022-11-15T02:38:03;15.95;;;10.90;;
72275;SDS011;61204;49.980;8.358;2022-11-15T02:40:57;14.32;;;10.18;;
72275;SDS011;61204;49.980;8.358;2022-11-15T02:43:39;14.98;;;10.73;;
72275;SDS011;61204;49.980;8.358;2022-11-15T02:46:57;13.20;;;10.38;;
72275;SDS011;61204;49.980;8.358;2022-11-15T02:52:34;12.75;;;9.63;;
72275;SDS011;61204;49.980;8.358;2022-11-15T02:55:00;13.02;;;9.30;;
72275;SDS011;61204;49.980;8.358;2022-11-15T02:57:51;14.52;;;9.30;;
72275;SDS011;61204;49.980;8.358;2022-11-15T03:01:18;13.68;;;10.27;;
72275;SDS011;61204;49.980;8.358;2022-11-15T03:04:29;14.40;;;9.02;;
72275;SDS011;61204;49.980;8.358;2022-11-15T03:07:33;12.13;;;9.45;;
72275;SDS011;61204;49.980;8.358;2022-11-15T03:10:17;12.57;;;9.35;;
72275;SDS011;61204;49.980;8.358;2022-11-15T03:13:09;12.27;;;8.93;;
72275;SDS011;61204;49.980;8.358;2022-11-15T03:16:16;15.15;;;9.80;;
72275;SDS011;61204;49.980;8.358;2022-11-15T03:18:52;11.07;;;8.43;;
72275;SDS011;61204;49.980;8.358;2022-11-15T03:21:29;12.35;;;8.82;;
72275;SDS011;61204;49.980;8.358;2022-11-15T03:24:01;14.93;;;10.18;;
72275;SDS011;61204;49.980;8.358;2022-11-15T03:26:33;13.57;;;9.93;;
72275;SDS011;61204;49.980;8.358;2022-11-15T03:29:04;14.15;;;10.35;;
72275;SDS011;61204;49.980;8.358;2022-11-15T03:31:45;12.68;;;10.02;;
72275;SDS011;61204;49.980;8.358;2022-11-15T03:37:15;14.45;;;9.00;;
72275;SDS011;61204;49.980;8.358;2022-11-15T03:39:47;12.95;;;10.02;;
72275;SDS011;61204;49.980;8.358;2022-11-15T03:45:14;12.38;;;9.15;;
72275;SDS011;61204;49.980;8.358;2022-11-15T03:47:58;12.02;;;9.80;;
72275;SDS011;61204;49.980;8.358;2022-11-15T03:50:38;15.30;;;9.40;;
72275;SDS011;61204;49.980;8.358;2022-11-15T03:53:06;11.13;;;8.95;;
72275;SDS011;61204;49.980;8.358;2022-11-15T03:55:32;13.95;;;9.07;;
72275;SDS011;61204;49.980;8.358;2022-11-15T03:57:59;11.73;;;9.32;;
72275;SDS011;61204;49.980;8.358;2022-11-15T04:00:27;10.18;;;8.85;;
72275;SDS011;61204;49.980;8.358;2022-11-15T04:02:53;12.55;;;9.43;;
72275;SDS011;61204;49.980;8.358;2022-11-15T04:05:18;12.80;;;8.93;;
72275;SDS011;61204;49.980;8.358;2022-11-15T04:07:44;13.60;;;9.25;;
72275;SDS011;61204;49.980;8.358;2022-11-15T04:10:10;12.50;;;9.25;;
72275;SDS011;61204;49.980;8.358;2022-11-15T04:12:37;10.98;;;8.77;;
72275;SDS011;61204;49.980;8.358;2022-11-15T04:15:09;12.30;;;8.98;;
72275;SDS011;61204;49.980;8.358;2022-11-15T04:17:42;14.10;;;8.93;;
72275;SDS011;61204;49.980;8.358;2022-11-15T04:20:13;10.95;;;8.43;;
72275;SDS011;61204;49.980;8.358;2022-11-15T04:23:27;12.52;;;8.95;;
72275;SDS011;61204;49.980;8.358;2022-11-15T04:28:42;11.05;;;9.18;;
72275;SDS011;61204;49.980;8.358;2022-11-15T04:31:26;10.65;;;8.80;;
72275;SDS011;61204;49.980;8.358;2022-11-15T04:33:53;10.30;;;9.07;;
72275;SDS011;61204;49.980;8.358;2022-11-15T04:36:19;11.70;;;9.07;;
72275;SDS011;61204;49.980;8.358;2022-11-15T04:39:05;12.02;;;9.23;;
72275;SDS011;61204;49.980;8.358;2022-11-15T04:41:31;12.00;;;9.13;;
72275;SDS011;61204;49.980;8.358;2022-11-15T04:43:56;13.43;;;9.05;;
72275;SDS011;61204;49.980;8.358;2022-11-15T04:46:22;13.20;;;8.98;;
72275;SDS011;61204;49.980;8.358;2022-11-15T04:48:49;11.88;;;8.73;;
72275;SDS011;61204;49.980;8.358;2022-11-15T04:51:19;12.70;;;9.23;;
72275;SDS011;61204;49.980;8.358;2022-11-15T04:53:45;10.50;;;8.10;;
72275;SDS011;61204;49.980;8.358;2022-11-15T04:56:11;14.35;;;8.25;;
72275;SDS011;61204;49.980;8.358;2022-11-15T04:58:37;13.95;;;8.90;;
72275;SDS011;61204;49.980;8.358;2022-11-15T05:01:12;11.30;;;8.82;;
72275;SDS011;61204;49.980;8.358;2022-11-15T05:03:40;12.32;;;8.70;;
72275;SDS011;61204;49.980;8.358;2022-11-15T05:06:26;12.05;;;8.10;;
72275;SDS011;61204;49.980;8.358;2022-11-15T05:08:51;12.50;;;9.55;;
72275;SDS011;61204;49.980;8.358;2022-11-15T05:11:17;13.02;;;8.43;;
72275;SDS011;61204;49.980;8.358;2022-11-15T05:13:43;15.60;;;8.77;;
72275;SDS011;61204;49.980;8.358;2022-11-15T05:16:09;11.05;;;8.32;;
72275;SDS011;61204;49.980;8.358;2022-11-15T05:18:34;13.15;;;8.35;;
72275;SDS011;61204;49.980;8.358;2022-11-15T05:21:04;13.85;;;8.13;;
72275;SDS011;61204;49.980;8.358;2022-11-15T05:23:32;15.55;;;9.43;;
72275;SDS011;61204;49.980;8.358;2022-11-15T05:25:59;13.50;;;8.73;;
72275;SDS011;61204;49.980;8.358;2022-11-15T05:28:26;12.32;;;8.85;;
72275;SDS011;61204;49.980;8.358;2022-11-15T05:30:52;14.05;;;9.00;;
72275;SDS011;61204;49.980;8.358;2022-11-15T05:33:17;12.93;;;8.15;;
72275;SDS011;61204;49.980;8.358;2022-11-15T05:35:48;10.70;;;7.72;;
72275;SDS011;61204;49.980;8.358;2022-11-15T05:38:27;8.10;;;6.70;;
72275;SDS011;61204;49.980;8.358;2022-11-15T05:40:53;9.32;;;6.75;;
72275;SDS011;61204;49.980;8.358;2022-11-15T05:43:20;11.18;;;6.07;;
72275;SDS011;61204;49.980;8.358;2022-11-15T05:45:47;8.50;;;6.25;;
72275;SDS011;61204;49.980;8.358;2022-11-15T05:48:13;7.95;;;5.70;;
72275;SDS011;61204;49.980;8.358;2022-11-15T05:50:41;9.63;;;6.22;;
72275;SDS011;61204;49.980;8.358;2022-11-15T05:53:12;9.15;;;6.50;;
72275;SDS011;61204;49.980;8.358;2022-11-15T05:55:44;8.25;;;6.13;;
72275;SDS011;61204;49.980;8.358;2022-11-15T05:58:10;7.32;;;5.70;;
72275;SDS011;61204;49.980;8.358;2022-11-15T06:00:36;6.35;;;5.13;;
72275;SDS011;61204;49.980;8.358;2022-11-15T06:03:02;8.55;;;5.20;;
72275;SDS011;61204;49.980;8.358;2022-11-15T06:05:27;7.55;;;5.68;;
72275;SDS011;61204;49.980;8.358;2022-11-15T06:07:56;10.23;;;6.28;;
72275;SDS011;61204;49.980;8.358;2022-11-15T06:10:24;6.40;;;5.43;;
72275;SDS011;61204;49.980;8.358;2022-11-15T06:13:02;8.32;;;5.93;;
72275;SDS011;61204;49.980;8.358;2022-11-15T06:15:29;8.05;;;5.75;;
72275;SDS011;61204;49.980;8.358;2022-11-15T06:18:01;8.70;;;6.05;;
72275;SDS011;61204;49.980;8.358;2022-11-15T06:20:27;7.68;;;6.15;;
72275;SDS011;61204;49.980;8.358;2022-11-15T06:23:01;9.88;;;6.18;;
72275;SDS011;61204;49.980;8.358;2022-11-15T06:25:29;8.10;;;6.17;;
72275;SDS011;61204;49.980;8.358;2022-11-15T06:27:57;8.57;;;6.55;;
72275;SDS011;61204;49.980;8.358;2022-11-15T06:30:24;7.90;;;6.22;;
72275;SDS011;61204;49.980;8.358;2022-11-15T06:32:51;9.60;;;6.60;;
72275;SDS011;61204;49.980;8.358;2022-11-15T06:35:28;8.13;;;6.25;;
72275;SDS011;61204;49.980;8.358;2022-11-15T06:38:05;7.78;;;6.38;;
72275;SDS011;61204;49.980;8.358;2022-11-15T06:40:35;9.82;;;7.05;;
72275;SDS011;61204;49.980;8.358;2022-11-15T06:43:05;9.65;;;6.57;;
72275;SDS011;61204;49.980;8.358;2022-11-15T06:45:32;8.52;;;6.65;;
72275;SDS011;61204;49.980;8.358;2022-11-15T06:47:58;9.50;;;6.78;;
72275;SDS011;61204;49.980;8.358;2022-11-15T06:50:24;9.30;;;7.53;;
72275;SDS011;61204;49.980;8.358;2022-11-15T06:52:50;8.20;;;6.28;;
72275;SDS011;61204;49.980;8.358;2022-11-15T06:55:18;9.10;;;6.75;;
72275;SDS011;61204;49.980;8.358;2022-11-15T06:57:50;10.90;;;6.75;;
72275;SDS011;61204;49.980;8.358;2022-11-15T07:00:18;10.20;;;6.88;;
72275;SDS011;61204;49.980;8.358;2022-11-15T07:02:47;8.82;;;6.75;;
72275;SDS011;61204;49.980;8.358;2022-11-15T07:05:13;11.98;;;7.30;;
72275;SDS011;61204;49.980;8.358;2022-11-15T07:07:40;8.68;;;6.15;;
72275;SDS011;61204;49.980;8.358;2022-11-15T07:10:06;8.40;;;6.72;;
72275;SDS011;61204;49.980;8.358;2022-11-15T07:12:33;8.50;;;6.55;;
72275;SDS011;61204;49.980;8.358;2022-11-15T07:14:59;8.68;;;6.53;;
72275;SDS011;61204;49.980;8.358;2022-11-15T07:17:24;9.25;;;6.50;;
72275;SDS011;61204;49.980;8.358;2022-11-15T07:19:50;8.30;;;6.68;;
72275;SDS011;61204;49.980;8.358;2022-11-15T07:22:16;9.10;;;6.40;;
72275;SDS011;61204;49.980;8.358;2022-11-15T07:24:42;8.52;;;6.50;;
72275;SDS011;61204;49.980;8.358;2022-11-15T07:27:07;7.05;;;6.35;;
72275;SDS011;61204;49.980;8.358;2022-11-15T07:29:33;9.82;;;6.97;;
72275;SDS011;61204;49.980;8.358;2022-11-15T07:31:58;8.50;;;6.47;;
72275;SDS011;61204;49.980;8.358;2022-11-15T07:34:24;9.73;;;6.22;;
72275;SDS011;61204;49.980;8.358;2022-11-15T07:36:49;10.52;;;6.55;;
72275;SDS011;61204;49.980;8.358;2022-11-15T07:39:15;10.18;;;6.63;;
72275;SDS011;61204;49.980;8.358;2022-11-15T07:41:41;9.05;;;7.57;;
72275;SDS011;61204;49.980;8.358;2022-11-15T07:44:08;18.58;;;11.38;;
72275;SDS011;61204;49.980;8.358;2022-11-15T07:46:34;12.02;;;9.23;;
72275;SDS011;61204;49.980;8.358;2022-11-15T07:48:59;10.93;;;9.38;;
72275;SDS011;61204;49.980;8.358;2022-11-15T07:51:25;10.27;;;8.50;;
72275;SDS011;61204;49.980;8.358;2022-11-15T07:53:50;14.27;;;8.95;;
72275;SDS011;61204;49.980;8.358;2022-11-15T07:56:16;10.40;;;8.50;;
72275;SDS011;61204;49.980;8.358;2022-11-15T07:58:41;10.00;;;7.90;;
72275;SDS011;61204;49.980;8.358;2022-11-15T08:01:08;9.15;;;7.60;;
72275;SDS011;61204;49.980;8.358;2022-11-15T08:03:35;8.90;;;7.15;;
72275;SDS011;61204;49.980;8.358;2022-11-15T08:06:02;10.82;;;7.90;;
72275;SDS011;61204;49.980;8.358;2022-11-15T08:08:28;9.13;;;6.60;;
72275;SDS011;61204;49.980;8.358;2022-11-15T08:10:54;10.02;;;6.78;;
72275;SDS011;61204;49.980;8.358;2022-11-15T08:13:19;10.35;;;6.85;;
72275;SDS011;61204;49.980;8.358;2022-11-15T08:15:46;8.65;;;6.30;;
72275;SDS011;61204;49.980;8.358;2022-11-15T08:18:15;14.57;;;7.22;;
72275;SDS011;61204;49.980;8.358;2022-11-15T08:20:42;8.07;;;6.50;;
72275;SDS011;61204;49.980;8.358;2022-11-15T08:23:09;6.70;;;5.88;;
72275;SDS011;61204;49.980;8.358;2022-11-15T08:25:37;9.63;;;6.45;;
72275;SDS011;61204;49.980;8.358;2022-11-15T08:28:05;8.30;;;5.55;;
72275;SDS011;61204;49.980;8.358;2022-11-15T08:30:38;7.22;;;5.88;;
72275;SDS011;61204;49.980;8.358;2022-11-15T08:33:12;7.65;;;6.00;;
72275;SDS011;61204;49.980;8.358;2022-11-15T08:35:39;7.68;;;6.15;;
72275;SDS011;61204;49.980;8.358;2022-11-15T08:38:08;10.63;;;6.68;;
72275;SDS011;61204;49.980;8.358;2022-11-15T08:40:34;7.60;;;6.28;;
72275;SDS011;61204;49.980;8.358;2022-11-15T08:43:01;11.07;;;6.88;;
72275;SDS011;61204;49.980;8.358;2022-11-15T08:45:28;12.15;;;7.68;;
72275;SDS011;61204;49.980;8.358;2022-11-15T08:47:55;8.32;;;6.57;;
72275;SDS011;61204;49.980;8.358;2022-11-15T08:50:22;9.70;;;7.25;;
72275;SDS011;61204;49.980;8.358;2022-11-15T08:52:48;9.52;;;6.43;;
72275;SDS011;61204;49.980;8.358;2022-11-15T08:55:14;48.83;;;33.10;;
72275;SDS011;61204;49.980;8.358;2022-11-15T08:57:40;16.50;;;10.90;;
72275;SDS011;61204;49.980;8.358;2022-11-15T09:00:05;8.80;;;6.28;;
72275;SDS011;61204;49.980;8.358;2022-11-15T09:02:32;8.63;;;5.88;;
72275;SDS011;61204;49.980;8.358;2022-11-15T09:04:58;8.48;;;6.28;;
72275;SDS011;61204;49.980;8.358;2022-11-15T09:07:23;10.63;;;6.72;;
72275;SDS011;61204;49.980;8.358;2022-11-15T09:09:49;9.40;;;6.82;;
72275;SDS011;61204;49.980;8.358;2022-11-15T09:12:14;8.43;;;6.45;;
72275;SDS011;61204;49.980;8.358;2022-11-15T09:14:40;12.85;;;6.32;;
72275;SDS011;61204;49.980;8.358;2022-11-15T09:17:09;7.50;;;5.88;;
72275;SDS011;61204;49.980;8.358;2022-11-15T09:19:35;9.18;;;6.32;;
72275;SDS011;61204;49.980;8.358;2022-11-15T09:22:01;9.95;;;6.63;;
72275;SDS011;61204;49.980;8.358;2022-11-15T09:24:31;8.50;;;5.97;;
72275;SDS011;61204;49.980;8.358;2022-11-15T09:26:57;8.57;;;6.38;;
72275;SDS011;61204;49.980;8.358;2022-11-15T09:29:23;10.98;;;6.53;;
72275;SDS011;61204;49.980;8.358;2022-11-15T09:31:48;8.20;;;6.25;;
72275;SDS011;61204;49.980;8.358;2022-11-15T09:34:17;9.98;;;7.13;;
72275;SDS011;61204;49.980;8.358;2022-11-15T09:36:43;10.07;;;6.72;;
72275;SDS011;61204;49.980;8.358;2022-11-15T09:39:08;9.98;;;7.38;;
72275;SDS011;61204;49.980;8.358;2022-11-15T09:41:46;9.32;;;7.60;;
72275;SDS011;61204;49.980;8.358;2022-11-15T09:54:04;9.45;;;7.50;;
72275;SDS011;61204;49.980;8.358;2022-11-15T09:56:46;8.98;;;7.03;;
72275;SDS011;61204;49.980;8.358;2022-11-15T09:59:22;10.68;;;8.70;;
72275;SDS011;61204;49.980;8.358;2022-11-15T10:02:45;10.73;;;7.70;;
72275;SDS011;61204;49.980;8.358;2022-11-15T10:05:36;8.57;;;6.60;;
72275;SDS011;61204;49.980;8.358;2022-11-15T10:11:30;9.50;;;6.70;;
72275;SDS011;61204;49.980;8.358;2022-11-15T10:14:02;11.93;;;7.63;;
72275;SDS011;61204;49.980;8.358;2022-11-15T10:20:24;9.27;;;7.22;;
72275;SDS011;61204;49.980;8.358;2022-11-15T10:23:01;10.20;;;7.40;;
72275;SDS011;61204;49.980;8.358;2022-11-15T10:25:36;8.10;;;6.95;;
72275;SDS011;61204;49.980;8.358;2022-11-15T10:28:09;10.65;;;7.15;;
72275;SDS011;61204;49.980;8.358;2022-11-15T10:30:49;11.98;;;7.90;;
72275;SDS011;61204;49.980;8.358;2022-11-15T10:33:31;11.07;;;7.97;;
72275;SDS011;61204;49.980;8.358;2022-11-15T10:46:32;10.48;;;7.45;;
72275;SDS011;61204;49.980;8.358;2022-11-15T10:49:14;14.30;;;7.53;;
72275;SDS011;61204;49.980;8.358;2022-11-15T10:51:54;12.23;;;6.97;;
72275;SDS011;61204;49.980;8.358;2022-11-15T10:54:46;12.77;;;7.65;;
72275;SDS011;61204;49.980;8.358;2022-11-15T10:57:22;10.38;;;7.63;;
72275;SDS011;61204;49.980;8.358;2022-11-15T10:59:56;13.13;;;7.15;;
72275;SDS011;61204;49.980;8.358;2022-11-15T11:10:57;10.70;;;7.40;;
72275;SDS011;61204;49.980;8.358;2022-11-15T11:13:29;11.40;;;7.10;;
72275;SDS011;61204;49.980;8.358;2022-11-15T11:22:10;9.55;;;6.53;;
72275;SDS011;61204;49.980;8.358;2022-11-15T11:24:56;7.63;;;6.53;;
72275;SDS011;61204;49.980;8.358;2022-11-15T11:30:10;8.52;;;6.85;;
72275;SDS011;61204;49.980;8.358;2022-11-15T11:33:16;8.95;;;7.00;;
72275;SDS011;61204;49.980;8.358;2022-11-15T11:35:58;9.18;;;6.60;;
72275;SDS011;61204;49.980;8.358;2022-11-15T11:42:38;7.78;;;6.10;;
72275;SDS011;61204;49.980;8.358;2022-11-15T11:48:44;12.98;;;6.88;;
72275;SDS011;61204;49.980;8.358;2022-11-15T11:51:32;8.95;;;6.32;;
72275;SDS011;61204;49.980;8.358;2022-11-15T11:54:14;10.18;;;6.22;;
72275;SDS011;61204;49.980;8.358;2022-11-15T11:57:33;10.93;;;6.32;;
72275;SDS011;61204;49.980;8.358;2022-11-15T12:06:33;8.77;;;5.85;;
72275;SDS011;61204;49.980;8.358;2022-11-15T12:09:43;7.03;;;5.53;;
72275;SDS011;61204;49.980;8.358;2022-11-15T12:15:37;7.97;;;5.32;;
72275;SDS011;61204;49.980;8.358;2022-11-15T12:18:16;8.25;;;5.40;;
72275;SDS011;61204;49.980;8.358;2022-11-15T12:20:55;6.70;;;4.85;;
72275;SDS011;61204;49.980;8.358;2022-11-15T12:23:32;6.55;;;5.25;;
72275;SDS011;61204;49.980;8.358;2022-11-15T12:26:16;8.57;;;5.00;;
72275;SDS011;61204;49.980;8.358;2022-11-15T12:28:58;7.95;;;5.03;;
72275;SDS011;61204;49.980;8.358;2022-11-15T12:31:38;9.25;;;5.40;;
72275;SDS011;61204;49.980;8.358;2022-11-15T12:36:46;9.35;;;4.70;;
72275;SDS011;61204;49.980;8.358;2022-11-15T12:39:15;6.60;;;5.28;;
72275;SDS011;61204;49.980;8.358;2022-11-15T12:41:44;6.78;;;5.18;;
72275;SDS011;61204;49.980;8.358;2022-11-15T13:02:55;10.10;;;5.68;;
72275;SDS011;61204;49.980;8.358;2022-11-15T13:08:37;7.35;;;5.45;;
72275;SDS011;61204;49.980;8.358;2022-11-15T13:19:52;7.47;;;5.13;;
72275;SDS011;61204;49.980;8.358;2022-11-15T13:22:42;6.32;;;5.32;;
72275;SDS011;61204;49.980;8.358;2022-11-15T13:33:30;9.85;;;5.57;;
72275;SDS011;61204;49.980;8.358;2022-11-15T13:36:22;6.20;;;4.70;;
72275;SDS011;61204;49.980;8.358;2022-11-15T13:38:57;6.88;;;4.65;;
72275;SDS011;61204;49.980;8.358;2022-11-15T13:41:32;7.38;;;5.13;;
72275;SDS011;61204;49.980;8.358;2022-11-15T13:44:02;6.60;;;4.55;;
72275;SDS011;61204;49.980;8.358;2022-11-15T13:46:43;6.85;;;4.88;;
72275;SDS011;61204;49.980;8.358;2022-11-15T13:49:09;9.13;;;4.82;;
72275;SDS011;61204;49.980;8.358;2022-11-15T13:57:24;6.07;;;4.75;;
72275;SDS011;61204;49.980;8.358;2022-11-15T14:00:04;7.95;;;4.60;;
72275;SDS011;61204;49.980;8.358;2022-11-15T14:02:49;5.55;;;4.45;;
72275;SDS011;61204;49.980;8.358;2022-11-15T14:05:19;8.65;;;4.60;;
72275;SDS011;61204;49.980;8.358;2022-11-15T14:07:59;9.63;;;5.30;;
72275;SDS011;61204;49.980;8.358;2022-11-15T14:10:47;7.68;;;5.35;;
72275;SDS011;61204;49.980;8.358;2022-11-15T14:13:29;6.30;;;5.05;;
72275;SDS011;61204;49.980;8.358;2022-11-15T14:16:16;6.40;;;4.50;;
72275;SDS011;61204;49.980;8.358;2022-11-15T14:18:50;6.78;;;4.45;;
72275;SDS011;61204;49.980;8.358;2022-11-15T14:21:18;6.03;;;4.00;;
72275;SDS011;61204;49.980;8.358;2022-11-15T14:23:45;5.63;;;4.28;;
72275;SDS011;61204;49.980;8.358;2022-11-15T14:26:28;6.30;;;5.03;;
72275;SDS011;61204;49.980;8.358;2022-11-15T14:31:55;5.28;;;4.00;;
72275;SDS011;61204;49.980;8.358;2022-11-15T14:35:09;4.13;;;3.55;;
72275;SDS011;61204;49.980;8.358;2022-11-15T14:37:43;5.60;;;3.90;;
72275;SDS011;61204;49.980;8.358;2022-11-15T14:40:12;4.57;;;3.22;;
72275;SDS011;61204;49.980;8.358;2022-11-15T14:42:45;4.43;;;3.22;;
72275;SDS011;61204;49.980;8.358;2022-11-15T14:45:19;5.97;;;3.55;;
72275;SDS011;61204;49.980;8.358;2022-11-15T14:47:47;6.07;;;3.20;;
72275;SDS011;61204;49.980;8.358;2022-11-15T14:50:17;3.75;;;2.67;;
72275;SDS011;61204;49.980;8.358;2022-11-15T14:52:46;4.55;;;2.80;;
72275;SDS011;61204;49.980;8.358;2022-11-15T14:55:16;3.45;;;2.80;;
72275;SDS011;61204;49.980;8.358;2022-11-15T14:57:49;3.75;;;2.67;;
72275;SDS011;61204;49.980;8.358;2022-11-15T15:00:17;4.63;;;2.45;;
72275;SDS011;61204;49.980;8.358;2022-11-15T15:02:45;6.10;;;2.85;;
72275;SDS011;61204;49.980;8.358;2022-11-15T15:08:01;5.05;;;2.20;;
72275;SDS011;61204;49.980;8.358;2022-11-15T15:10:29;4.43;;;2.33;;
72275;SDS011;61204;49.980;8.358;2022-11-15T15:13:01;4.65;;;2.00;;
72275;SDS011;61204;49.980;8.358;2022-11-15T15:15:32;4.97;;;2.25;;
72275;SDS011;61204;49.980;8.358;2022-11-15T15:18:02;2.80;;;2.03;;
72275;SDS011;61204;49.980;8.358;2022-11-15T15:20:30;3.72;;;2.25;;
72275;SDS011;61204;49.980;8.358;2022-11-15T15:22:57;8.88;;;2.35;;
72275;SDS011;61204;49.980;8.358;2022-11-15T15:25:27;5.43;;;2.28;;
72275;SDS011;61204;49.980;8.358;2022-11-15T15:27:58;3.55;;;2.03;;
72275;SDS011;61204;49.980;8.358;2022-11-15T15:30:26;5.75;;;2.40;;
72275;SDS011;61204;49.980;8.358;2022-11-15T15:32:54;4.70;;;2.50;;
72275;SDS011;61204;49.980;8.358;2022-11-15T15:35:20;6.95;;;2.38;;
72275;SDS011;61204;49.980;8.358;2022-11-15T15:37:55;3.53;;;2.33;;
72275;SDS011;61204;49.980;8.358;2022-11-15T15:40:21;4.35;;;2.30;;
72275;SDS011;61204;49.980;8.358;2022-11-15T15:42:49;5.00;;;2.13;;
72275;SDS011;61204;49.980;8.358;2022-11-15T15:45:16;5.03;;;2.03;;
72275;SDS011;61204;49.980;8.358;2022-11-15T15:47:44;4.53;;;2.15;;
72275;SDS011;61204;49.980;8.358;2022-11-15T15:52:50;4.10;;;2.33;;
72275;SDS011;61204;49.980;8.358;2022-11-15T15:55:20;4.05;;;2.20;;
72275;SDS011;61204;49.980;8.358;2022-11-15T15:57:47;4.00;;;2.40;;
72275;SDS011;61204;49.980;8.358;2022-11-15T16:00:14;3.55;;;2.58;;
72275;SDS011;61204;49.980;8.358;2022-11-15T16:02:42;5.47;;;2.20;;
72275;SDS011;61204;49.980;8.358;2022-11-15T16:05:08;3.03;;;2.30;;
72275;SDS011;61204;49.980;8.358;2022-11-15T16:07:36;4.90;;;2.55;;
72275;SDS011;61204;49.980;8.358;2022-11-15T16:10:14;4.55;;;2.92;;
72275;SDS011;61204;49.980;8.358;2022-11-15T16:15:17;6.20;;;2.63;;
72275;SDS011;61204;49.980;8.358;2022-11-15T16:17:46;5.53;;;2.45;;
72275;SDS011;61204;49.980;8.358;2022-11-15T16:23:07;5.40;;;2.95;;
72275;SDS011;61204;49.980;8.358;2022-11-15T16:25:40;6.38;;;2.70;;
72275;SDS011;61204;49.980;8.358;2022-11-15T16:28:16;7.30;;;2.80;;
72275;SDS011;61204;49.980;8.358;2022-11-15T16:30:48;6.40;;;2.50;;
72275;SDS011;61204;49.980;8.358;2022-11-15T16:33:23;7.40;;;3.35;;
72275;SDS011;61204;49.980;8.358;2022-11-15T16:35:49;5.15;;;2.72;;
72275;SDS011;61204;49.980;8.358;2022-11-15T16:38:15;7.63;;;3.33;;
72275;SDS011;61204;49.980;8.358;2022-11-15T16:40:43;7.63;;;3.60;;
72275;SDS011;61204;49.980;8.358;2022-11-15T16:43:09;5.82;;;3.33;;
72275;SDS011;61204;49.980;8.358;2022-11-15T16:45:35;5.82;;;4.22;;
72275;SDS011;61204;49.980;8.358;2022-11-15T16:48:01;6.65;;;4.57;;
72275;SDS011;61204;49.980;8.358;2022-11-15T16:50:28;6.18;;;4.32;;
72275;SDS011;61204;49.980;8.358;2022-11-15T16:53:04;8.02;;;3.55;;
72275;SDS011;61204;49.980;8.358;2022-11-15T16:55:31;8.85;;;4.43;;
72275;SDS011;61204;49.980;8.358;2022-11-15T16:57:56;8.57;;;3.83;;
72275;SDS011;61204;49.980;8.358;2022-11-15T17:00:22;6.07;;;3.90;;
72275;SDS011;61204;49.980;8.358;2022-11-15T17:02:50;9.25;;;3.70;;
72275;SDS011;61204;49.980;8.358;2022-11-15T17:05:18;4.78;;;3.60;;
72275;SDS011;61204;49.980;8.358;2022-11-15T17:07:47;6.88;;;4.47;;
72275;SDS011;61204;49.980;8.358;2022-11-15T17:10:22;6.75;;;4.72;;
72275;SDS011;61204;49.980;8.358;2022-11-15T17:12:51;11.13;;;4.25;;
72275;SDS011;61204;49.980;8.358;2022-11-15T17:15:19;8.55;;;5.18;;
72275;SDS011;61204;49.980;8.358;2022-11-15T17:17:49;7.07;;;4.10;;
72275;SDS011;61204;49.980;8.358;2022-11-15T17:20:18;5.80;;;3.70;;
72275;SDS011;61204;49.980;8.358;2022-11-15T17:22:48;8.82;;;3.90;;
72275;SDS011;61204;49.980;8.358;2022-11-15T17:25:15;8.63;;;4.53;;
72275;SDS011;61204;49.980;8.358;2022-11-15T17:27:41;5.68;;;4.45;;
72275;SDS011;61204;49.980;8.358;2022-11-15T17:30:07;6.85;;;4.43;;
72275;SDS011;61204;49.980;8.358;2022-11-15T17:32:37;6.05;;;4.38;;
72275;SDS011;61204;49.980;8.358;2022-11-15T17:35:03;5.53;;;4.05;;